createdAt,value
2018-03-23T00:01:14.655Z,99.30
2018-03-23T00:03:43.061Z,99.10
2018-03-23T00:06:11.825Z,99.20
2018-03-23T00:08:39.432Z,99.10
2018-03-23T00:11:06.976Z,99.20
2018-03-23T00:13:35.172Z,99.20
2018-03-23T00:16:02.653Z,99.20
2018-03-23T00:18:30.885Z,99.60
2018-03-23T00:20:58.332Z,99.50
2018-03-23T00:23:25.813Z,99.40
2018-03-23T00:26:17.854Z,99.50
2018-03-23T00:28:45.312Z,99.40
2018-03-23T00:31:18.825Z,99.50
2018-03-23T00:34:06.808Z,99.50
2018-03-23T00:36:57.823Z,99.60
2018-03-23T00:39:25.287Z,99.70
2018-03-23T00:41:52.733Z,99.80
2018-03-23T00:44:20.188Z,99.90
2018-03-23T00:47:17.241Z,99.90
2018-03-23T00:49:47.919Z,99.90
2018-03-23T00:52:16.155Z,99.90
2018-03-23T00:54:43.607Z,99.90
2018-03-23T00:57:11.040Z,99.90
2018-03-23T00:59:47.578Z,99.90
2018-03-23T01:02:15.056Z,99.90
2018-03-23T01:05:02.301Z,99.90
2018-03-23T01:07:29.805Z,99.90
2018-03-23T01:13:01.364Z,99.90
2018-03-23T01:15:35.172Z,99.90
2018-03-23T01:21:05.530Z,99.90
2018-03-23T01:23:47.718Z,99.90
2018-03-23T01:26:15.205Z,99.90
2018-03-23T01:31:35.955Z,99.90
2018-03-23T01:34:03.407Z,99.90
2018-03-23T01:39:34.336Z,99.90
2018-03-23T01:42:01.785Z,99.90
2018-03-23T01:47:22.540Z,99.90
2018-03-23T01:49:50.064Z,99.90
2018-03-23T01:52:17.583Z,99.90
2018-03-23T01:54:45.165Z,99.90
2018-03-23T01:57:12.630Z,99.90
2018-03-23T01:59:40.982Z,99.90
2018-03-23T02:05:02.527Z,99.90
2018-03-23T02:07:30.003Z,99.90
2018-03-23T02:13:00.555Z,99.90
2018-03-23T02:15:28.035Z,99.90
2018-03-23T02:20:57.634Z,99.90
2018-03-23T02:23:47.397Z,99.90
2018-03-23T02:26:25.416Z,99.90
2018-03-23T02:29:05.889Z,99.90
2018-03-23T02:31:33.379Z,99.90
2018-03-23T02:34:04.368Z,99.90
2018-03-23T02:36:31.856Z,99.90
2018-03-23T02:38:59.315Z,99.90
2018-03-23T02:41:46.673Z,99.90
2018-03-23T02:44:14.208Z,99.90
2018-03-23T02:46:42.553Z,99.90
2018-03-23T02:49:10.087Z,99.90
2018-03-23T02:51:37.650Z,99.90
2018-03-23T02:54:05.262Z,99.90
2018-03-23T02:56:32.847Z,99.90
2018-03-23T02:59:08.920Z,99.90
2018-03-23T03:01:36.448Z,99.90
2018-03-23T03:07:09.189Z,99.90
2018-03-23T03:12:40.827Z,99.90
2018-03-23T03:15:11.268Z,99.90
2018-03-23T03:17:39.259Z,99.90
2018-03-23T03:23:10.507Z,99.90
2018-03-23T03:25:38.099Z,99.90
2018-03-23T03:28:05.644Z,99.90
2018-03-23T03:30:33.325Z,99.90
2018-03-23T03:36:05.287Z,99.90
2018-03-23T03:38:33.592Z,99.90
2018-03-23T03:41:03.590Z,99.90
2018-03-23T03:43:31.978Z,99.90
2018-03-23T03:45:59.488Z,99.90
2018-03-23T03:48:26.988Z,99.90
2018-03-23T03:50:54.621Z,99.90
2018-03-23T03:53:22.154Z,99.90
2018-03-23T03:55:53.222Z,99.90
2018-03-23T03:58:37.340Z,99.90
2018-03-23T04:01:04.851Z,99.90
2018-03-23T04:03:32.367Z,99.90
2018-03-23T04:06:00.189Z,99.90
2018-03-23T04:08:27.793Z,99.90
2018-03-23T04:10:55.345Z,99.90
2018-03-23T04:13:23.641Z,99.90
2018-03-23T04:24:29.514Z,99.90
2018-03-23T04:27:05.491Z,99.90
2018-03-23T04:32:36.208Z,99.90
2018-03-23T04:35:03.740Z,99.90
2018-03-23T04:37:31.275Z,99.90
2018-03-23T04:40:17.887Z,99.90
2018-03-23T04:42:45.412Z,99.90
2018-03-23T04:45:12.958Z,99.90
2018-03-23T04:47:41.374Z,99.90
2018-03-23T04:50:08.985Z,99.90
2018-03-23T04:52:36.656Z,99.90
2018-03-23T04:55:04.222Z,99.90
2018-03-23T04:57:31.775Z,99.90
2018-03-23T04:59:59.316Z,99.90
2018-03-23T05:02:26.861Z,99.90
2018-03-23T05:04:54.471Z,99.90
2018-03-23T05:07:22.090Z,99.90
2018-03-23T05:09:49.788Z,99.90
2018-03-23T05:15:11.778Z,99.90
2018-03-23T05:17:39.312Z,99.90
2018-03-23T05:20:06.827Z,99.90
2018-03-23T05:22:48.293Z,99.90
2018-03-23T05:25:16.653Z,99.90
2018-03-23T05:27:44.174Z,99.90
2018-03-23T05:30:11.854Z,99.90
2018-03-23T05:32:49.022Z,99.90
2018-03-23T05:38:08.843Z,99.90
2018-03-23T05:43:48.640Z,99.90
2018-03-23T05:46:17.012Z,99.90
2018-03-23T05:48:44.544Z,99.50
2018-03-23T05:51:18.182Z,99.80
2018-03-23T05:53:45.849Z,99.80
2018-03-23T05:56:17.878Z,99.90
2018-03-23T05:58:46.013Z,99.80
2018-03-23T06:01:13.579Z,99.70
2018-03-23T06:03:41.258Z,99.60
2018-03-23T06:06:08.938Z,99.40
2018-03-23T06:08:39.927Z,99.40
2018-03-23T06:11:07.845Z,99.30
2018-03-23T06:13:35.352Z,99.00
2018-03-23T06:16:04.080Z,99.10
2018-03-23T06:18:31.632Z,99.30
2018-03-23T06:20:59.237Z,98.80
2018-03-23T06:23:26.769Z,98.90
2018-03-23T06:26:17.838Z,98.70
2018-03-23T06:28:45.369Z,98.70
2018-03-23T06:31:13.128Z,98.50
2018-03-23T06:33:40.658Z,98.30
2018-03-23T06:36:08.491Z,98.30
2018-03-23T06:41:39.990Z,98.20
2018-03-23T06:44:08.872Z,98.30
2018-03-23T06:46:36.570Z,98.10
2018-03-23T06:49:21.436Z,97.90
2018-03-23T06:51:49.737Z,98.20
2018-03-23T06:56:57.403Z,98.50
2018-03-23T06:59:25.926Z,98.50
2018-03-23T07:34:25.811Z,98.80
2018-03-23T07:36:54.504Z,99.50
2018-03-23T07:42:15.407Z,99.30
2018-03-23T07:44:43.332Z,98.40
2018-03-23T07:47:10.856Z,98.80
2018-03-23T07:49:38.480Z,98.60
2018-03-23T07:52:18.896Z,96.80
2018-03-23T07:57:49.512Z,95.70
2018-03-23T08:00:17.946Z,95.60
2018-03-23T08:03:05.444Z,95.70
2018-03-23T08:05:33.014Z,94.60
2018-03-23T08:11:03.637Z,94.80
2018-03-23T08:13:31.172Z,94.30
2018-03-23T08:16:05.249Z,93.80
2018-03-23T08:18:49.595Z,94.10
2018-03-23T08:21:17.204Z,94.00
2018-03-23T08:23:45.800Z,92.60
2018-03-23T08:26:13.398Z,92.80
2018-03-23T08:28:58.047Z,91.80
2018-03-23T08:31:25.580Z,92.00
2018-03-23T08:33:53.470Z,91.90
2018-03-23T08:39:14.817Z,91.90
2018-03-23T08:41:42.499Z,92.00
2018-03-23T08:44:10.167Z,92.00
2018-03-23T08:46:37.756Z,91.50
2018-03-23T08:49:23.340Z,91.80
2018-03-23T08:51:50.922Z,90.70
2018-03-23T08:54:20.314Z,89.60
2018-03-23T08:59:52.318Z,83.30
2018-03-23T09:02:47.947Z,85.90
2018-03-23T09:08:19.292Z,85.80
2018-03-23T09:10:47.800Z,88.00
2018-03-23T09:21:13.545Z,87.90
2018-03-23T09:23:48.293Z,86.40
2018-03-23T09:26:15.834Z,87.80
2018-03-23T09:28:43.363Z,89.30
2018-03-23T09:31:10.996Z,90.40
2018-03-23T09:33:47.908Z,91.40
2018-03-23T09:36:18.863Z,91.30
2018-03-23T09:41:39.695Z,89.60
2018-03-23T09:44:07.334Z,90.00
2018-03-23T09:49:39.127Z,92.00
2018-03-23T09:52:10.088Z,92.00
2018-03-23T09:54:39.173Z,92.20
2018-03-23T09:57:10.543Z,91.60
2018-03-23T09:59:38.238Z,91.30
2018-03-23T10:02:05.788Z,91.20
2018-03-23T10:04:33.295Z,91.60
2018-03-23T10:10:17.757Z,90.70
2018-03-23T10:12:45.291Z,91.40
2018-03-23T10:15:18.705Z,91.20
2018-03-23T10:21:19.917Z,91.80
2018-03-23T10:26:48.576Z,91.00
2018-03-23T10:29:16.587Z,90.00
2018-03-23T10:31:44.111Z,90.10
2018-03-23T10:34:11.654Z,90.80
2018-03-23T10:39:27.843Z,90.70
2018-03-23T10:44:58.924Z,88.20
2018-03-23T10:47:29.915Z,86.60
2018-03-23T10:49:58.164Z,85.20
2018-03-23T10:52:27.944Z,82.00
2018-03-23T10:54:55.890Z,80.00
2018-03-23T11:00:01.481Z,73.60
2018-03-23T11:02:47.238Z,72.80
2018-03-23T11:05:14.750Z,74.30
2018-03-23T11:07:42.284Z,74.80
2018-03-23T11:10:09.812Z,75.10
2018-03-23T11:12:37.405Z,80.00
2018-03-23T11:15:05.779Z,81.00
2018-03-23T11:17:33.311Z,79.30
2018-03-23T11:20:00.813Z,80.50
2018-03-23T11:22:28.337Z,80.50
2018-03-23T11:24:55.946Z,79.80
2018-03-23T11:27:24.458Z,78.70
2018-03-23T11:29:52.239Z,82.30
2018-03-23T11:35:06.308Z,83.20
2018-03-23T11:37:34.001Z,83.90
2018-03-23T11:40:02.317Z,88.20
2018-03-23T11:42:47.752Z,86.40
2018-03-23T11:45:15.250Z,86.40
2018-03-23T11:47:42.906Z,84.70
2018-03-23T11:50:10.714Z,84.40
2018-03-23T11:52:48.154Z,83.80
2018-03-23T11:55:15.689Z,85.50
2018-03-23T11:57:43.235Z,84.80
2018-03-23T12:00:10.740Z,84.90
2018-03-23T12:05:42.537Z,86.20
2018-03-23T12:11:36.681Z,85.60
2018-03-23T12:14:26.455Z,85.80
2018-03-23T12:16:54.018Z,87.10
2018-03-23T12:19:35.207Z,88.80
2018-03-23T12:22:03.142Z,89.10
2018-03-23T12:24:30.648Z,87.50
2018-03-23T12:26:58.572Z,86.80
2018-03-23T12:29:26.200Z,87.90
2018-03-23T12:32:07.123Z,87.80
2018-03-23T12:34:35.494Z,87.30
2018-03-23T12:37:03.798Z,85.60
2018-03-23T12:39:32.137Z,87.30
2018-03-23T12:41:59.822Z,86.10
2018-03-23T12:44:27.536Z,86.00
2018-03-23T12:46:55.230Z,85.30
2018-03-23T12:49:22.755Z,86.50
2018-03-23T12:51:50.312Z,86.80
2018-03-23T12:54:18.726Z,87.00
2018-03-23T12:56:46.344Z,86.30
2018-03-23T12:59:13.860Z,87.00
2018-03-23T13:01:41.999Z,86.90
2018-03-23T13:04:09.608Z,86.60
2018-03-23T13:06:37.126Z,86.10
2018-03-23T13:09:04.954Z,86.30
2018-03-23T13:11:33.547Z,87.20
2018-03-23T13:14:01.143Z,86.80
2018-03-23T13:16:29.426Z,87.50
2018-03-23T13:18:57.073Z,85.50
2018-03-23T13:21:24.658Z,85.40
2018-03-23T13:23:52.199Z,86.50
2018-03-23T13:26:19.755Z,86.40
2018-03-23T13:28:47.328Z,86.60
2018-03-23T13:31:15.062Z,85.60
2018-03-23T13:33:42.892Z,85.40
2018-03-23T13:36:10.969Z,83.70
2018-03-23T13:38:39.339Z,83.50
2018-03-23T13:41:07.137Z,83.40
2018-03-23T13:43:35.482Z,83.60
2018-03-23T13:46:03.755Z,82.00
2018-03-23T13:48:31.313Z,79.50
2018-03-23T13:50:58.833Z,77.20
2018-03-23T13:53:26.453Z,74.80
2018-03-23T13:55:54.037Z,74.10
2018-03-23T13:58:21.551Z,69.60
2018-03-23T14:00:54.829Z,68.60
2018-03-23T14:03:23.707Z,73.90
2018-03-23T14:05:52.258Z,75.70
2018-03-23T14:08:19.831Z,77.60
2018-03-23T14:10:47.440Z,76.50
2018-03-23T14:13:14.975Z,77.90
2018-03-23T14:15:42.578Z,77.00
2018-03-23T14:18:10.104Z,77.20
2018-03-23T14:20:37.729Z,76.40
2018-03-23T14:23:05.347Z,76.70
2018-03-23T14:25:33.406Z,77.60
2018-03-23T14:28:01.775Z,81.60
2018-03-23T14:30:29.483Z,82.10
2018-03-23T14:32:57.794Z,81.50
2018-03-23T14:35:25.394Z,81.10
2018-03-23T14:37:52.932Z,82.90
2018-03-23T14:40:20.458Z,83.60
2018-03-23T14:42:47.999Z,84.00
2018-03-23T14:45:15.630Z,84.50
2018-03-23T14:47:43.242Z,85.50
2018-03-23T14:50:10.893Z,84.30
2018-03-23T14:52:39.260Z,85.70
2018-03-23T14:55:06.882Z,85.30
2018-03-23T14:57:34.442Z,84.30
2018-03-23T15:00:02.034Z,84.20
2018-03-23T15:02:29.592Z,85.10
2018-03-23T15:04:57.161Z,85.20
2018-03-23T15:07:25.411Z,85.00
2018-03-23T15:09:53.006Z,84.00
2018-03-23T15:12:20.745Z,83.20
2018-03-23T15:14:48.353Z,83.00
2018-03-23T15:17:15.874Z,83.40
2018-03-23T15:19:43.552Z,84.20
2018-03-23T15:22:11.509Z,81.80
2018-03-23T15:24:39.158Z,81.50
2018-03-23T15:27:06.713Z,82.30
2018-03-23T15:29:35.057Z,81.40
2018-03-23T15:32:02.566Z,81.60
2018-03-23T15:34:30.092Z,81.70
2018-03-23T15:36:57.627Z,81.80
2018-03-23T15:39:25.181Z,82.20
2018-03-23T15:41:53.592Z,82.50
2018-03-23T15:44:21.205Z,83.10
2018-03-23T15:46:48.833Z,83.50
2018-03-23T15:49:16.435Z,83.60
2018-03-23T15:51:44.030Z,85.00
2018-03-23T15:54:11.947Z,83.80
2018-03-23T15:56:39.469Z,84.30
2018-03-23T15:59:07.120Z,84.60
2018-03-23T16:01:34.741Z,84.70
2018-03-23T16:04:03.078Z,85.50
2018-03-23T16:06:30.739Z,84.00
2018-03-23T16:08:58.279Z,84.60
2018-03-23T16:11:26.643Z,85.50
2018-03-23T16:13:54.320Z,84.30
2018-03-23T16:16:21.920Z,84.30
2018-03-23T16:18:49.588Z,84.80
2018-03-23T16:21:17.239Z,84.70
2018-03-23T16:23:45.656Z,85.10
2018-03-23T16:26:13.233Z,84.60
2018-03-23T16:28:41.153Z,86.30
2018-03-23T16:31:08.750Z,85.60
2018-03-23T16:33:37.059Z,86.80
2018-03-23T16:36:04.672Z,86.10
2018-03-23T16:38:32.273Z,86.20
2018-03-23T16:40:59.797Z,86.20
2018-03-23T16:43:27.323Z,85.70
2018-03-23T16:45:55.349Z,86.10
2018-03-23T16:48:23.740Z,86.10
2018-03-23T16:50:51.444Z,86.40
2018-03-23T16:53:19.054Z,86.80
2018-03-23T16:55:48.016Z,86.00
2018-03-23T16:58:15.565Z,85.80
2018-03-23T17:00:43.118Z,85.70
2018-03-23T17:03:11.169Z,86.20
2018-03-23T17:05:38.921Z,86.20
2018-03-23T17:08:06.588Z,85.90
2018-03-23T17:10:34.663Z,86.60
2018-03-23T17:13:02.284Z,86.80
2018-03-23T17:15:30.207Z,86.50
2018-03-23T17:17:58.198Z,86.80
2018-03-23T17:20:25.754Z,87.50
2018-03-23T17:22:53.327Z,87.80
2018-03-23T17:25:20.861Z,87.70
2018-03-23T17:27:48.583Z,87.30
2018-03-23T17:30:16.227Z,87.80
2018-03-23T17:32:45.001Z,87.50
2018-03-23T17:35:12.632Z,87.40
2018-03-23T17:37:40.317Z,88.20
2018-03-23T17:40:08.014Z,87.80
2018-03-23T17:42:35.677Z,88.40
2018-03-23T17:45:03.197Z,88.40
2018-03-23T17:47:30.809Z,88.10
2018-03-23T17:49:58.482Z,88.50
2018-03-23T17:52:26.186Z,88.40
2018-03-23T17:54:54.263Z,88.80
2018-03-23T17:57:22.684Z,89.00
2018-03-23T17:59:59.327Z,89.40
2018-03-23T18:02:27.697Z,89.20
2018-03-23T18:04:55.627Z,89.60
2018-03-23T18:07:23.909Z,89.10
2018-03-23T18:09:52.810Z,88.90
2018-03-23T18:12:21.498Z,89.40
2018-03-23T18:14:49.768Z,89.70
2018-03-23T18:17:18.141Z,89.60
2018-03-23T18:19:45.662Z,89.50
2018-03-23T18:22:13.656Z,90.00
2018-03-23T18:24:55.289Z,89.80
2018-03-23T18:27:23.509Z,89.90
2018-03-23T18:29:52.053Z,89.90
2018-03-23T18:32:21.765Z,90.00
2018-03-23T18:34:49.551Z,89.90
2018-03-23T18:37:18.214Z,90.00
2018-03-23T18:39:49.786Z,90.30
2018-03-23T18:42:17.290Z,90.10
2018-03-23T18:44:44.804Z,90.20
2018-03-23T18:47:12.413Z,90.20
2018-03-23T18:49:39.967Z,90.30
2018-03-23T18:52:07.551Z,90.30
2018-03-23T18:54:36.300Z,90.70
2018-03-23T18:57:04.266Z,90.40
2018-03-23T18:59:37.485Z,90.50
2018-03-23T19:02:18.815Z,90.60
2018-03-23T19:04:46.444Z,90.00
2018-03-23T19:07:17.886Z,89.80
2018-03-23T19:09:47.691Z,90.20
2018-03-23T19:12:15.643Z,89.10
2018-03-23T19:14:43.220Z,89.10
2018-03-23T19:19:55.257Z,90.10
2018-03-23T19:22:22.903Z,90.20
2018-03-23T19:30:22.079Z,90.10
2018-03-23T19:32:55.061Z,90.10
2018-03-23T19:38:20.273Z,90.00
2018-03-23T19:40:47.872Z,89.80
2018-03-23T19:43:17.104Z,89.00
2018-03-23T19:45:44.703Z,89.50
2018-03-23T19:48:12.876Z,89.80
2018-03-23T19:50:42.180Z,89.90
2018-03-23T19:53:09.906Z,90.10
2018-03-23T19:55:48.726Z,89.70
2018-03-23T20:01:02.806Z,89.90
2018-03-23T20:03:30.430Z,89.60
2018-03-23T20:05:58.032Z,89.90
2018-03-23T20:08:25.829Z,89.70
2018-03-23T20:10:53.385Z,90.00
2018-03-23T20:13:41.839Z,89.90
2018-03-23T20:16:16.470Z,89.70
2018-03-23T20:18:44.469Z,90.00
2018-03-23T20:21:12.126Z,89.80
2018-03-23T20:23:48.131Z,90.00
2018-03-23T20:26:16.427Z,90.00
2018-03-23T20:28:50.507Z,90.10
2018-03-23T20:34:14.837Z,89.70
2018-03-23T20:36:42.608Z,90.00
2018-03-23T20:39:10.262Z,90.30
2018-03-23T20:41:37.947Z,90.20
2018-03-23T20:44:06.526Z,90.30
2018-03-23T20:46:35.710Z,90.50
2018-03-23T20:51:56.429Z,90.50
2018-03-23T20:54:24.552Z,90.70
2018-03-23T20:56:52.144Z,90.90
2018-03-23T20:59:37.120Z,90.90
2018-03-23T21:02:06.030Z,91.00
2018-03-23T21:17:05.132Z,91.50
2018-03-23T21:19:33.727Z,91.60
2018-03-23T21:22:18.240Z,91.70
2018-03-23T21:24:45.977Z,91.70
2018-03-23T21:27:19.468Z,91.70
2018-03-23T21:35:32.282Z,91.80
2018-03-23T21:38:00.331Z,91.80
2018-03-23T21:40:28.300Z,91.80
2018-03-23T21:42:55.882Z,91.80
2018-03-23T21:45:25.414Z,91.90
2018-03-23T21:48:10.380Z,91.80
2018-03-23T21:50:41.161Z,91.80
2018-03-23T21:53:09.037Z,91.90
2018-03-23T21:55:44.609Z,92.10
2018-03-23T21:58:32.557Z,91.90
2018-03-23T22:01:00.546Z,91.80
2018-03-23T22:03:28.871Z,92.20
2018-03-23T22:08:39.680Z,91.90
2018-03-23T22:11:07.381Z,91.80
2018-03-23T22:13:35.040Z,91.70
2018-03-23T22:19:07.568Z,91.70
2018-03-23T22:21:38.273Z,91.70
2018-03-23T22:26:44.737Z,91.50
2018-03-23T22:29:26.374Z,91.70
2018-03-23T22:31:54.459Z,91.50
2018-03-23T22:37:00.989Z,91.30
2018-03-23T22:39:28.630Z,91.40
2018-03-23T22:41:56.188Z,91.50
2018-03-23T22:44:23.790Z,91.30
2018-03-23T22:49:51.047Z,91.40
2018-03-23T22:52:41.693Z,91.20
2018-03-23T22:55:09.364Z,91.10
2018-03-23T22:57:36.943Z,91.20
2018-03-23T23:00:05.289Z,91.50
2018-03-23T23:02:33.088Z,91.20
2018-03-23T23:05:00.717Z,91.20
2018-03-23T23:07:28.303Z,91.20
2018-03-23T23:09:56.336Z,91.20
2018-03-23T23:15:26.726Z,90.90
2018-03-23T23:17:54.304Z,91.20
2018-03-23T23:20:22.345Z,91.60
2018-03-23T23:22:50.005Z,92.00
2018-03-23T23:25:17.599Z,92.10
2018-03-23T23:27:45.213Z,92.40
2018-03-23T23:30:25.685Z,92.50
2018-03-23T23:32:53.379Z,92.40
2018-03-23T23:35:21.050Z,92.40
2018-03-23T23:44:05.596Z,92.60
2018-03-23T23:46:35.192Z,92.50
2018-03-23T23:49:03.363Z,92.60
2018-03-23T23:51:30.992Z,92.70
2018-03-23T23:53:58.691Z,92.80
2018-03-23T23:56:26.235Z,93.00
